createdAt,value
2017-09-21T00:00:01.339Z,13.15
2017-09-21T00:01:01.308Z,13.07
2017-09-21T00:02:01.359Z,13.16
2017-09-21T00:03:01.283Z,13.1
2017-09-21T00:04:01.270Z,13.22
2017-09-21T00:05:01.224Z,13.23
2017-09-21T00:06:00.908Z,13.22
2017-09-21T00:07:00.888Z,13.19
2017-09-21T00:08:00.544Z,13.18
2017-09-21T00:09:00.850Z,13.31
2017-09-21T00:10:01.147Z,13.18
2017-09-21T00:11:00.809Z,13.11
2017-09-21T00:12:01.109Z,13.11
2017-09-21T00:13:00.448Z,13.16
2017-09-21T00:14:00.750Z,13.19
2017-09-21T00:15:00.729Z,13.19
2017-09-21T00:16:00.700Z,13.25
2017-09-21T00:17:00.389Z,13.19
2017-09-21T00:18:00.668Z,13.1
2017-09-21T00:19:00.970Z,13.15
2017-09-21T00:20:00.624Z,13.11
2017-09-21T00:21:00.956Z,13.03
2017-09-21T00:22:00.901Z,13.15
2017-09-21T00:23:00.571Z,13.15
2017-09-21T00:24:00.854Z,13.19
2017-09-21T00:25:00.850Z,13.23
2017-09-21T00:26:00.199Z,13.23
2017-09-21T00:27:00.499Z,13.18
2017-09-21T00:28:00.798Z,13.14
2017-09-21T00:29:00.147Z,13.1
2017-09-21T00:30:00.431Z,12.98
2017-09-21T00:31:00.429Z,13.04
2017-09-21T00:32:00.414Z,13.08
2017-09-21T00:33:00.699Z,13.06
2017-09-21T00:34:00.348Z,12.97
2017-09-21T00:35:00.040Z,12.89
2017-09-21T00:36:00.630Z,12.81
2017-09-21T00:37:00.352Z,12.81
2017-09-21T00:38:00.288Z,12.63
2017-09-21T00:38:59.952Z,12.73
2017-09-21T00:40:00.254Z,12.78
2017-09-21T00:40:59.908Z,12.71
2017-09-21T00:42:00.197Z,12.7
2017-09-21T00:43:00.246Z,12.79
2017-09-21T00:44:00.482Z,12.78
2017-09-21T00:45:00.140Z,12.74
2017-09-21T00:46:00.149Z,12.64
2017-09-21T00:47:00.412Z,12.7
2017-09-21T00:48:00.080Z,12.76
2017-09-21T00:49:00.060Z,12.76
2017-09-21T00:50:00.059Z,12.88
2017-09-21T00:51:00.329Z,12.98
2017-09-21T00:52:00.317Z,12.98
2017-09-21T00:53:00.300Z,12.94
2017-09-21T00:54:00.278Z,12.89
2017-09-21T00:55:00.251Z,12.94
2017-09-21T00:56:00.240Z,12.98
2017-09-21T00:57:00.218Z,12.86
2017-09-21T00:58:00.194Z,12.81
2017-09-21T00:59:00.179Z,12.82
2017-09-21T01:00:00.167Z,12.81
2017-09-21T01:01:00.169Z,12.85
2017-09-21T01:02:00.136Z,12.65
2017-09-21T01:03:00.109Z,12.6
2017-09-21T01:04:00.082Z,12.65
2017-09-21T01:05:00.065Z,12.68
2017-09-21T01:06:00.037Z,12.7
2017-09-21T01:07:00.020Z,12.74
2017-09-21T01:08:00.014Z,12.85
2017-09-21T01:08:59.985Z,12.85
2017-09-21T01:09:59.960Z,12.85
2017-09-21T01:10:59.680Z,12.94
2017-09-21T01:11:59.928Z,12.97
2017-09-21T01:12:59.898Z,13.01
2017-09-21T01:13:59.880Z,13
2017-09-21T01:14:59.344Z,12.81
2017-09-21T01:15:59.848Z,12.81
2017-09-21T01:16:59.530Z,12.9
2017-09-21T01:17:59.800Z,12.83
2017-09-21T01:18:59.789Z,12.82
2017-09-21T01:19:59.770Z,12.85
2017-09-21T01:20:59.455Z,13
2017-09-21T01:21:59.727Z,12.86
2017-09-21T01:22:59.696Z,13
2017-09-21T01:23:59.389Z,12.92
2017-09-21T01:24:59.360Z,12.85
2017-09-21T01:25:59.659Z,12.96
2017-09-21T01:26:59.002Z,12.83
2017-09-21T01:27:59.610Z,13
2017-09-21T01:28:59.587Z,12.88
2017-09-21T01:29:59.559Z,12.89
2017-09-21T01:30:59.561Z,12.94
2017-09-21T01:31:59.520Z,12.81
2017-09-21T01:32:59.185Z,12.76
2017-09-21T01:33:59.486Z,12.73
2017-09-21T01:34:59.479Z,12.81
2017-09-21T01:35:59.440Z,12.88
2017-09-21T01:36:59.425Z,12.78
2017-09-21T01:37:59.420Z,12.73
2017-09-21T01:38:59.390Z,12.82
2017-09-21T01:39:59.058Z,12.78
2017-09-21T01:40:59.040Z,12.67
2017-09-21T01:41:59.030Z,12.57
2017-09-21T01:42:59.314Z,12.61
2017-09-21T01:43:58.979Z,12.57
2017-09-21T01:44:58.947Z,12.53
2017-09-21T01:45:58.936Z,12.6
2017-09-21T01:46:59.223Z,12.65
2017-09-21T01:47:58.921Z,12.55
2017-09-21T01:48:59.210Z,12.49
2017-09-21T01:49:58.860Z,12.48
2017-09-21T01:50:58.852Z,12.55
2017-09-21T01:51:58.819Z,12.53
2017-09-21T01:52:58.807Z,12.64
2017-09-21T01:53:59.092Z,12.64
2017-09-21T01:54:59.070Z,12.63
2017-09-21T01:55:59.073Z,12.6
2017-09-21T01:56:58.729Z,12.6
2017-09-21T01:57:59.020Z,12.4
2017-09-21T01:58:58.380Z,12.43
2017-09-21T01:59:58.983Z,12.4
2017-09-21T02:00:58.951Z,12.4
2017-09-21T02:01:58.930Z,12.58
2017-09-21T02:02:58.609Z,12.55
2017-09-21T02:03:58.587Z,12.5
2017-09-21T02:04:58.569Z,12.64
2017-09-21T02:05:58.891Z,12.74
2017-09-21T02:06:58.843Z,12.73
2017-09-21T02:07:58.819Z,12.81
2017-09-21T02:08:58.809Z,12.83
2017-09-21T02:09:58.769Z,12.74
2017-09-21T02:10:58.444Z,12.57
2017-09-21T02:11:58.740Z,12.55
2017-09-21T02:12:58.423Z,12.52
2017-09-21T02:13:58.710Z,12.37
2017-09-21T02:14:58.360Z,12.49
2017-09-21T02:15:58.360Z,12.58
2017-09-21T02:16:58.019Z,12.42
2017-09-21T02:17:58.614Z,12.5
2017-09-21T02:18:58.590Z,12.55
2017-09-21T02:19:58.591Z,12.64
2017-09-21T02:20:58.250Z,12.7
2017-09-21T02:21:58.230Z,12.68
2017-09-21T02:22:58.207Z,12.63
2017-09-21T02:23:57.879Z,12.68
2017-09-21T02:24:58.479Z,12.74
2017-09-21T02:25:58.458Z,12.76
2017-09-21T02:26:58.453Z,12.71
2017-09-21T02:27:57.799Z,12.74
2017-09-21T02:28:57.833Z,12.68
2017-09-21T02:29:58.071Z,12.63
2017-09-21T02:30:58.060Z,12.7
2017-09-21T02:31:58.349Z,12.79
2017-09-21T02:32:57.701Z,12.73
2017-09-21T02:33:58.301Z,12.76
2017-09-21T02:34:58.288Z,12.55
2017-09-21T02:35:57.959Z,12.5
2017-09-21T02:36:58.262Z,12.45
2017-09-21T02:37:58.239Z,12.53
2017-09-21T02:38:58.202Z,12.49
2017-09-21T02:39:57.870Z,12.43
2017-09-21T02:40:58.173Z,12.49
2017-09-21T02:41:58.180Z,12.42
2017-09-21T02:42:58.130Z,12.39
2017-09-21T02:43:57.800Z,12.49
2017-09-21T02:44:57.773Z,12.58
2017-09-21T02:45:58.071Z,12.58
2017-09-21T02:46:57.735Z,12.63
2017-09-21T02:47:57.410Z,12.68
2017-09-21T02:48:58.009Z,12.7
2017-09-21T02:49:57.670Z,12.79
2017-09-21T02:50:57.971Z,12.71
2017-09-21T02:51:57.955Z,12.78
2017-09-21T02:52:57.621Z,12.86
2017-09-21T02:53:57.590Z,12.89
2017-09-21T02:54:57.604Z,12.79
2017-09-21T02:55:57.551Z,12.86
2017-09-21T02:56:57.541Z,12.65
2017-09-21T02:57:57.519Z,12.55
2017-09-21T02:58:57.503Z,12.53
2017-09-21T02:59:57.790Z,12.57
2017-09-21T03:00:57.777Z,12.68
2017-09-21T03:01:57.759Z,12.67
2017-09-21T03:02:57.739Z,12.67
2017-09-21T03:03:57.707Z,12.78
2017-09-21T03:04:57.691Z,12.79
2017-09-21T03:05:57.358Z,12.73
2017-09-21T03:06:57.648Z,12.68
2017-09-21T03:07:57.621Z,12.55
2017-09-21T03:08:57.609Z,12.64
2017-09-21T03:09:57.279Z,12.76
2017-09-21T03:10:57.572Z,12.5
2017-09-21T03:11:57.549Z,12.3
2017-09-21T03:12:57.535Z,12.35
2017-09-21T03:13:57.201Z,12.16
2017-09-21T03:14:57.489Z,12.2
2017-09-21T03:15:57.510Z,12.27
2017-09-21T03:16:57.151Z,12.3
2017-09-21T03:17:57.446Z,12.42
2017-09-21T03:18:57.091Z,12.45
2017-09-21T03:19:57.394Z,12.39
2017-09-21T03:20:57.058Z,12.39
2017-09-21T03:21:57.031Z,12.42
2017-09-21T03:22:57.340Z,12.46
2017-09-21T03:23:56.991Z,12.45
2017-09-21T03:24:56.991Z,12.48
2017-09-21T03:25:56.963Z,12.49
2017-09-21T03:26:57.251Z,12.58
2017-09-21T03:27:57.228Z,12.6
2017-09-21T03:28:57.223Z,12.61
2017-09-21T03:29:56.900Z,12.61
2017-09-21T03:30:57.189Z,12.63
2017-09-21T03:31:57.162Z,12.61
2017-09-21T03:32:57.141Z,12.58
2017-09-21T03:33:57.133Z,12.58
2017-09-21T03:34:57.108Z,12.48
2017-09-21T03:35:57.082Z,12.4
2017-09-21T03:36:57.061Z,12.48
2017-09-21T03:37:57.052Z,12.43
2017-09-21T03:38:56.397Z,12.28
2017-09-21T03:39:56.691Z,12.17
2017-09-21T03:40:56.353Z,12.15
2017-09-21T03:41:56.956Z,12.21
2017-09-21T03:42:56.933Z,12.23
2017-09-21T03:43:56.921Z,12.3
2017-09-21T03:44:56.903Z,12.32
2017-09-21T03:45:56.582Z,12.34
2017-09-21T03:46:56.552Z,12.31
2017-09-21T03:47:56.522Z,12.3
2017-09-21T03:48:56.508Z,12.35
2017-09-21T03:49:56.790Z,12.48
2017-09-21T03:50:56.482Z,12.52
2017-09-21T03:51:56.450Z,12.61
2017-09-21T03:52:56.750Z,12.68
2017-09-21T03:53:56.729Z,12.58
2017-09-21T03:54:56.393Z,12.43
2017-09-21T03:55:56.063Z,12.45
2017-09-21T03:56:56.692Z,12.46
2017-09-21T03:57:56.331Z,12.5
2017-09-21T03:58:56.383Z,12.49
2017-09-21T03:59:56.603Z,12.42
2017-09-21T04:00:56.271Z,12.5
2017-09-21T04:01:56.563Z,12.5
2017-09-21T04:02:56.531Z,12.45
2017-09-21T04:03:56.532Z,12.37
2017-09-21T04:04:56.191Z,12.4
2017-09-21T04:05:56.483Z,12.35
2017-09-21T04:06:56.150Z,12.32
2017-09-21T04:07:56.141Z,12.45
2017-09-21T04:08:56.119Z,12.48
2017-09-21T04:09:56.401Z,12.5
2017-09-21T04:10:56.080Z,12.39
2017-09-21T04:11:56.370Z,12.46
2017-09-21T04:12:56.344Z,12.43
2017-09-21T04:13:56.002Z,12.49
2017-09-21T04:14:56.309Z,12.52
2017-09-21T04:15:56.282Z,12.5
2017-09-21T04:16:55.643Z,12.52
2017-09-21T04:17:55.619Z,12.4
2017-09-21T04:18:55.983Z,12.43
2017-09-21T04:19:55.889Z,12.37
2017-09-21T04:20:56.182Z,12.42
2017-09-21T04:21:56.160Z,12.37
2017-09-21T04:22:55.820Z,12.42
2017-09-21T04:23:55.810Z,12.35
2017-09-21T04:24:55.811Z,12.27
2017-09-21T04:25:55.778Z,12.31
2017-09-21T04:26:55.750Z,12.42
2017-09-21T04:27:56.029Z,12.37
2017-09-21T04:28:55.710Z,12.35
2017-09-21T04:29:55.699Z,12.4
2017-09-21T04:30:56.049Z,12.37
2017-09-21T04:31:55.986Z,12.45
2017-09-21T04:32:55.679Z,12.39
2017-09-21T04:33:55.607Z,12.39
2017-09-21T04:34:55.598Z,12.46
2017-09-21T04:35:55.981Z,12.32
2017-09-21T04:36:55.561Z,12.4
2017-09-21T04:37:55.887Z,12.45
2017-09-21T04:38:55.240Z,12.4
2017-09-21T04:39:55.499Z,12.42
2017-09-21T04:40:55.787Z,12.49
2017-09-21T04:41:55.773Z,12.55
2017-09-21T04:42:55.426Z,12.58
2017-09-21T04:43:55.717Z,12.53
2017-09-21T04:44:55.388Z,12.52
2017-09-21T04:45:55.378Z,12.61
2017-09-21T04:46:55.355Z,12.68
2017-09-21T04:47:55.676Z,12.58
2017-09-21T04:48:55.325Z,12.61
2017-09-21T04:49:55.294Z,12.64
2017-09-21T04:50:55.269Z,12.68
2017-09-21T04:51:54.946Z,12.68
2017-09-21T04:52:55.540Z,12.73
2017-09-21T04:53:55.211Z,12.67
2017-09-21T04:54:55.498Z,12.65
2017-09-21T04:55:55.487Z,12.61
2017-09-21T04:56:55.159Z,12.61
2017-09-21T04:57:55.140Z,12.57
2017-09-21T04:58:55.431Z,12.57
2017-09-21T04:59:55.098Z,12.63
2017-09-21T05:00:55.401Z,12.65
2017-09-21T05:01:55.380Z,12.65
2017-09-21T05:02:55.031Z,12.71
2017-09-21T05:03:55.016Z,12.76
2017-09-21T05:04:55.309Z,12.7
2017-09-21T05:05:55.289Z,12.68
2017-09-21T05:06:54.969Z,12.76
2017-09-21T05:07:55.248Z,12.71
2017-09-21T05:08:55.238Z,12.74
2017-09-21T05:09:55.218Z,12.73
2017-09-21T05:10:54.885Z,12.68
2017-09-21T05:11:55.199Z,12.7
2017-09-21T05:12:55.159Z,12.71
2017-09-21T05:13:55.139Z,12.73
2017-09-21T05:14:55.114Z,12.71
2017-09-21T05:15:54.792Z,12.71
2017-09-21T05:16:55.101Z,12.76
2017-09-21T05:17:54.756Z,12.74
2017-09-21T05:18:54.729Z,12.78
2017-09-21T05:19:54.708Z,12.74
2017-09-21T05:20:55.011Z,12.65
2017-09-21T05:21:54.987Z,12.65
2017-09-21T05:22:54.647Z,12.61
2017-09-21T05:23:54.629Z,12.63
2017-09-21T05:24:54.610Z,12.65
2017-09-21T05:25:54.907Z,12.67
2017-09-21T05:26:54.569Z,12.76
2017-09-21T05:27:54.237Z,12.7
2017-09-21T05:28:54.848Z,12.71
2017-09-21T05:29:54.818Z,12.63
2017-09-21T05:30:54.795Z,12.53
2017-09-21T05:31:54.467Z,12.55
2017-09-21T05:32:54.760Z,12.52
2017-09-21T05:33:54.738Z,12.45
2017-09-21T05:34:54.721Z,12.5
2017-09-21T05:35:54.728Z,12.53
2017-09-21T05:36:54.671Z,12.5
2017-09-21T05:37:54.668Z,12.53
2017-09-21T05:38:54.340Z,12.63
2017-09-21T05:39:54.617Z,12.45
2017-09-21T05:40:54.598Z,12.48
2017-09-21T05:41:54.280Z,12.42
2017-09-21T05:42:54.567Z,12.39
2017-09-21T05:43:54.238Z,12.37
2017-09-21T05:44:54.574Z,12.32
2017-09-21T05:45:54.507Z,12.4
2017-09-21T05:46:54.590Z,12.31
2017-09-21T05:47:54.470Z,12.45
2017-09-21T05:48:54.138Z,12.45
2017-09-21T05:49:54.116Z,12.48
2017-09-21T05:50:54.091Z,12.5
2017-09-21T05:51:54.397Z,12.49
2017-09-21T05:52:54.049Z,12.53
2017-09-21T05:53:54.355Z,12.63
2017-09-21T05:54:54.354Z,12.6
2017-09-21T05:55:54.367Z,12.61
2017-09-21T05:56:54.345Z,12.49
2017-09-21T05:57:53.957Z,12.58
2017-09-21T05:58:53.630Z,12.5
2017-09-21T05:59:53.918Z,12.49
2017-09-21T06:00:54.198Z,12.58
2017-09-21T06:01:54.196Z,12.55
2017-09-21T06:02:53.857Z,12.65
2017-09-21T06:03:54.158Z,12.61
2017-09-21T06:04:53.809Z,12.63
2017-09-21T06:05:54.166Z,12.67
2017-09-21T06:06:54.099Z,12.61
2017-09-21T06:07:54.131Z,12.63
2017-09-21T06:08:54.047Z,12.64
2017-09-21T06:09:54.059Z,12.4
2017-09-21T06:10:53.694Z,12.48
2017-09-21T06:11:53.985Z,12.37
2017-09-21T06:12:53.658Z,12.31
2017-09-21T06:13:53.960Z,12.31
2017-09-21T06:14:53.311Z,12.2
2017-09-21T06:15:53.918Z,12.13
2017-09-21T06:16:53.268Z,12.03
2017-09-21T06:17:53.921Z,12.02
2017-09-21T06:18:53.853Z,11.98
2017-09-21T06:19:53.868Z,12.03
2017-09-21T06:20:53.817Z,12.02
2017-09-21T06:21:53.478Z,12.1
2017-09-21T06:22:53.779Z,12.2
2017-09-21T06:23:53.750Z,12.12
2017-09-21T06:24:53.738Z,12.1
2017-09-21T06:25:53.087Z,12.02
2017-09-21T06:26:53.371Z,11.99
2017-09-21T06:27:53.668Z,12.02
2017-09-21T06:28:53.649Z,11.99
2017-09-21T06:29:53.622Z,12.1
2017-09-21T06:30:53.623Z,12.12
2017-09-21T06:31:53.289Z,11.99
2017-09-21T06:32:53.577Z,12.24
2017-09-21T06:33:53.601Z,11.99
2017-09-21T06:34:53.217Z,12.07
2017-09-21T06:35:53.206Z,12.02
2017-09-21T06:36:53.170Z,12.09
2017-09-21T06:37:53.151Z,12.2
2017-09-21T06:38:53.134Z,12.12
2017-09-21T06:39:53.111Z,12.21
2017-09-21T06:40:53.101Z,12.32
2017-09-21T06:41:52.768Z,12.32
2017-09-21T06:42:53.058Z,12.5
2017-09-21T06:43:53.038Z,12.63
2017-09-21T06:44:52.711Z,12.53
2017-09-21T06:45:53.020Z,12.68
2017-09-21T06:46:52.978Z,12.88
2017-09-21T06:47:53.322Z,13.1
2017-09-21T06:48:52.941Z,13.42
2017-09-21T06:49:53.277Z,13.72
2017-09-21T06:50:52.909Z,14
2017-09-21T06:51:52.882Z,14.38
2017-09-21T06:52:53.177Z,14.51
2017-09-21T06:53:52.887Z,14.82
2017-09-21T06:54:53.137Z,15.16
2017-09-21T06:55:52.814Z,15.5
2017-09-21T06:56:53.097Z,15.68
2017-09-21T06:57:52.788Z,15.57
2017-09-21T06:58:53.085Z,15.6
2017-09-21T06:59:52.750Z,15.43
2017-09-21T07:00:52.729Z,15.53
2017-09-21T07:01:53.019Z,16.13
2017-09-21T07:02:53.009Z,16.61
2017-09-21T07:03:53.026Z,16.26
2017-09-21T07:04:52.967Z,15.94
2017-09-21T07:05:52.650Z,16.17
2017-09-21T07:06:52.984Z,15.95
2017-09-21T07:07:52.609Z,15.68
2017-09-21T07:08:52.941Z,15.79
2017-09-21T07:09:52.889Z,15.82
2017-09-21T07:10:52.865Z,15.9
2017-09-21T07:11:52.838Z,15.54
2017-09-21T07:12:52.873Z,15.82
2017-09-21T07:13:52.829Z,16.35
2017-09-21T07:14:52.859Z,16.61
2017-09-21T07:15:52.829Z,16.63
2017-09-21T07:16:52.149Z,16.74
2017-09-21T07:17:52.749Z,17.21
2017-09-21T07:18:52.800Z,17.62
2017-09-21T07:19:52.710Z,17.75
2017-09-21T07:20:52.720Z,17.89
2017-09-21T07:21:52.704Z,17.09
2017-09-21T07:22:52.678Z,17.34
2017-09-21T07:23:52.339Z,17.68
2017-09-21T07:24:52.339Z,17.71
2017-09-21T07:25:52.635Z,17.37
2017-09-21T07:26:52.630Z,17.48
2017-09-21T07:27:52.278Z,17.77
2017-09-21T07:28:52.579Z,18.19
2017-09-21T07:29:52.266Z,18.38
2017-09-21T07:30:52.608Z,18.58
2017-09-21T07:31:52.541Z,18.73
2017-09-21T07:32:52.548Z,18.92
2017-09-21T07:33:52.185Z,18.97
2017-09-21T07:34:52.499Z,18.78
2017-09-21T07:35:52.179Z,18.63
2017-09-21T07:36:52.488Z,18.87
2017-09-21T07:37:52.150Z,18.9
2017-09-21T07:38:52.138Z,19.08
2017-09-21T07:39:52.438Z,19.36
2017-09-21T07:40:52.129Z,19.53
2017-09-21T07:41:52.106Z,19.71
2017-09-21T07:42:52.416Z,19.83
2017-09-21T07:43:52.088Z,20.11
2017-09-21T07:44:52.387Z,20.18
2017-09-21T07:45:52.377Z,20.36
2017-09-21T07:46:52.058Z,20.72
2017-09-21T07:47:52.359Z,20.41
2017-09-21T07:48:52.361Z,20.87
2017-09-21T07:49:52.368Z,21.26
2017-09-21T07:50:52.351Z,21.39
2017-09-21T07:51:52.350Z,21.21
2017-09-21T07:52:52.321Z,20.81
2017-09-21T07:53:52.320Z,20.72
2017-09-21T07:54:52.002Z,19.91
2017-09-21T07:55:52.309Z,20.1
2017-09-21T07:56:52.319Z,19.99
2017-09-21T07:57:52.368Z,19.96
2017-09-21T07:58:52.292Z,19.23
2017-09-21T07:59:52.318Z,18.82
2017-09-21T08:00:52.267Z,19.19
2017-09-21T08:01:52.349Z,19.95
2017-09-21T08:02:52.250Z,20.1
2017-09-21T08:03:52.261Z,19.66
2017-09-21T08:04:52.289Z,20.03
2017-09-21T08:05:52.233Z,20.85
2017-09-21T08:06:52.262Z,21.58
2017-09-21T08:07:51.959Z,22.27
2017-09-21T08:08:52.221Z,22.72
2017-09-21T08:09:52.270Z,22.69
2017-09-21T08:10:52.241Z,22.57
2017-09-21T08:11:52.194Z,22.52
2017-09-21T08:12:52.213Z,22.36
2017-09-21T08:13:51.942Z,22.59
2017-09-21T08:14:51.880Z,22.48
2017-09-21T08:15:52.159Z,22.82
2017-09-21T08:16:51.561Z,22.32
2017-09-21T08:17:51.839Z,22.39
2017-09-21T08:18:52.158Z,22.77
2017-09-21T08:19:52.131Z,23.45
2017-09-21T08:20:51.510Z,23.96
2017-09-21T08:21:51.824Z,24.39
2017-09-21T08:22:51.831Z,24.43
2017-09-21T08:23:51.501Z,24.33
2017-09-21T08:24:51.801Z,24.37
2017-09-21T08:25:51.789Z,24.44
2017-09-21T08:26:51.799Z,24.42
2017-09-21T08:27:51.831Z,24.47
2017-09-21T08:28:51.783Z,23.35
2017-09-21T08:29:51.780Z,23.51
2017-09-21T08:30:51.471Z,23.25
2017-09-21T08:31:51.767Z,21.79
2017-09-21T08:32:52.160Z,21.92
2017-09-21T08:33:51.770Z,22.36
2017-09-21T08:34:51.799Z,23.06
2017-09-21T08:35:51.747Z,23.6
2017-09-21T08:36:52.081Z,24.15
2017-09-21T08:37:51.741Z,24.24
2017-09-21T08:38:51.788Z,23.77
2017-09-21T08:39:51.741Z,23.97
2017-09-21T08:40:52.039Z,23.13
2017-09-21T08:41:52.062Z,23.25
2017-09-21T08:42:52.024Z,23.02
2017-09-21T08:43:51.744Z,23.62
2017-09-21T08:44:51.403Z,24.22
2017-09-21T08:45:51.401Z,24.84
2017-09-21T08:46:51.710Z,25
2017-09-21T08:47:52.025Z,24.57
2017-09-21T08:48:51.392Z,23.96
2017-09-21T08:49:51.701Z,23.75
2017-09-21T08:50:52.020Z,23.59
2017-09-21T08:51:52.025Z,23.62
2017-09-21T08:52:51.993Z,24.02
2017-09-21T08:53:51.995Z,24.25
2017-09-21T08:54:52.011Z,24.62
2017-09-21T08:55:51.981Z,24.9
2017-09-21T08:56:51.665Z,25.34
2017-09-21T08:57:51.666Z,25.02
2017-09-21T08:58:51.659Z,23.75
2017-09-21T08:59:51.662Z,24.24
2017-09-21T09:00:51.650Z,24.28
2017-09-21T09:01:51.661Z,24.33
2017-09-21T09:02:51.643Z,24.34
2017-09-21T09:03:51.945Z,24.54
2017-09-21T09:04:51.950Z,24.57
2017-09-21T09:05:51.651Z,24.09
2017-09-21T09:06:51.950Z,24.09
2017-09-21T09:07:51.944Z,24.54
2017-09-21T09:08:51.626Z,24.96
2017-09-21T09:09:51.951Z,25.07
2017-09-21T09:10:51.621Z,25.47
2017-09-21T09:11:51.920Z,25.52
2017-09-21T09:12:51.622Z,25.67
2017-09-21T09:13:51.614Z,26.11
2017-09-21T09:14:51.929Z,26.38
2017-09-21T09:15:51.614Z,26.41
2017-09-21T09:16:51.616Z,26.41
2017-09-21T09:17:51.922Z,26.45
2017-09-21T09:18:51.922Z,26.29
2017-09-21T09:19:51.925Z,25.96
2017-09-21T09:20:51.894Z,23.91
2017-09-21T09:21:51.901Z,24.51
2017-09-21T09:22:51.890Z,25.05
2017-09-21T09:23:51.583Z,25.02
2017-09-21T09:24:51.882Z,25.52
2017-09-21T09:25:51.882Z,25.54
2017-09-21T09:26:51.625Z,24.61
2017-09-21T09:27:51.899Z,23.62
2017-09-21T09:28:51.250Z,23.97
2017-09-21T09:29:51.251Z,23.82
2017-09-21T09:30:51.550Z,24.37
2017-09-21T09:31:51.551Z,24.37
2017-09-21T09:32:51.552Z,25.02
2017-09-21T09:33:51.862Z,25.52
2017-09-21T09:34:51.225Z,25.81
2017-09-21T09:35:51.853Z,25.82
2017-09-21T09:36:51.531Z,25.17
2017-09-21T09:37:51.556Z,24.78
2017-09-21T09:38:51.523Z,23.72
2017-09-21T09:39:51.533Z,22.92
2017-09-21T09:40:51.839Z,22.58
2017-09-21T09:41:51.824Z,22.37
2017-09-21T09:42:51.821Z,22.54
2017-09-21T09:43:51.531Z,23.41
2017-09-21T09:44:51.810Z,23.22
2017-09-21T09:45:51.513Z,22.97
2017-09-21T09:46:51.490Z,22.97
2017-09-21T09:47:51.809Z,22.12
2017-09-21T09:48:51.503Z,21.24
2017-09-21T09:49:51.780Z,21.46
2017-09-21T09:50:51.483Z,21.97
2017-09-21T09:51:51.472Z,22.22
2017-09-21T09:52:51.762Z,23.13
2017-09-21T09:53:51.761Z,23.73
2017-09-21T09:54:51.761Z,24.34
2017-09-21T09:55:51.119Z,23.96
2017-09-21T09:56:51.730Z,24.1
2017-09-21T09:57:51.745Z,24.18
2017-09-21T09:58:51.435Z,23.38
2017-09-21T09:59:51.736Z,22.59
2017-09-21T10:00:51.715Z,22.99
2017-09-21T10:01:51.717Z,23.65
2017-09-21T10:02:51.734Z,23.72
2017-09-21T10:03:51.701Z,24.32
2017-09-21T10:04:51.699Z,24.17
2017-09-21T10:05:51.694Z,24.24
2017-09-21T10:06:51.679Z,24.77
2017-09-21T10:07:51.052Z,25.27
2017-09-21T10:08:51.679Z,25.54
2017-09-21T10:09:51.648Z,25.17
2017-09-21T10:10:51.343Z,25.39
2017-09-21T10:11:51.649Z,25.1
2017-09-21T10:12:51.010Z,24.75
2017-09-21T10:13:51.638Z,24.58
2017-09-21T10:14:51.630Z,24.75
2017-09-21T10:15:51.308Z,25.02
2017-09-21T10:16:51.618Z,24.87
2017-09-21T10:17:51.586Z,25.42
2017-09-21T10:18:51.288Z,24.55
2017-09-21T10:19:51.577Z,24.55
2017-09-21T10:20:51.662Z,24.89
2017-09-21T10:21:51.255Z,24.9
2017-09-21T10:22:51.586Z,24.36
2017-09-21T10:23:51.551Z,24.15
2017-09-21T10:24:51.261Z,24.4
2017-09-21T10:25:51.548Z,24.36
2017-09-21T10:26:51.541Z,24.27
2017-09-21T10:27:51.543Z,24.92
2017-09-21T10:28:51.531Z,24.78
2017-09-21T10:29:51.528Z,24.21
2017-09-21T10:30:51.519Z,24.78
2017-09-21T10:31:51.499Z,23.52
2017-09-21T10:32:51.500Z,23.82
2017-09-21T10:33:51.497Z,24.55
2017-09-21T10:34:51.468Z,24.51
2017-09-21T10:35:51.482Z,25.08
2017-09-21T10:36:51.483Z,25.52
2017-09-21T10:37:51.150Z,26.24
2017-09-21T10:38:51.129Z,25.81
2017-09-21T10:39:51.429Z,25.17
2017-09-21T10:40:51.120Z,24.96
2017-09-21T10:41:51.107Z,24.47
2017-09-21T10:42:51.112Z,24.85
2017-09-21T10:43:51.400Z,25.11
2017-09-21T10:44:51.389Z,25.32
2017-09-21T10:45:51.101Z,25.32
2017-09-21T10:46:50.760Z,24.85
2017-09-21T10:47:51.097Z,25.11
2017-09-21T10:48:51.359Z,25.17
2017-09-21T10:49:51.063Z,25.51
2017-09-21T10:50:51.354Z,25.37
2017-09-21T10:51:51.329Z,25.49
2017-09-21T10:52:51.322Z,25.36
2017-09-21T10:53:51.450Z,25.82
2017-09-21T10:54:51.312Z,25.94
2017-09-21T10:55:51.439Z,26.19
2017-09-21T10:56:51.298Z,26.06
2017-09-21T10:57:51.123Z,25.64
2017-09-21T10:58:50.662Z,25.58
2017-09-21T10:59:51.309Z,25.52
2017-09-21T11:00:51.271Z,25.89
2017-09-21T11:01:50.949Z,26.11
2017-09-21T11:02:51.240Z,26.44
2017-09-21T11:03:51.232Z,25.73
2017-09-21T11:04:50.596Z,25.48
2017-09-21T11:05:51.260Z,25.32
2017-09-21T11:06:51.240Z,25.08
2017-09-21T11:07:50.915Z,24.75
2017-09-21T11:08:50.878Z,24.09
2017-09-21T11:09:51.190Z,24.49
2017-09-21T11:10:50.848Z,24.09
2017-09-21T11:11:51.158Z,24.33
2017-09-21T11:12:50.838Z,24.4
2017-09-21T11:13:50.838Z,24.64
2017-09-21T11:14:50.819Z,24.33
2017-09-21T11:15:51.120Z,24.47
2017-09-21T11:16:50.486Z,24.15
2017-09-21T11:17:51.115Z,24.18
2017-09-21T11:18:50.779Z,24.37
2017-09-21T11:19:50.780Z,23.84
2017-09-21T11:20:51.069Z,24.22
2017-09-21T11:21:50.750Z,24.49
2017-09-21T11:22:50.740Z,24.96
2017-09-21T11:23:50.729Z,25.29
2017-09-21T11:24:50.730Z,25.27
2017-09-21T11:25:50.404Z,25.03
2017-09-21T11:26:50.503Z,25.3
2017-09-21T11:27:50.692Z,25.52
2017-09-21T11:28:50.988Z,25.71
2017-09-21T11:29:50.980Z,25.67
2017-09-21T11:30:50.960Z,25
2017-09-21T11:31:50.661Z,24.85
2017-09-21T11:32:50.637Z,24.55
2017-09-21T11:33:50.960Z,24.85
2017-09-21T11:34:50.938Z,25.02
2017-09-21T11:35:50.313Z,25.55
2017-09-21T11:36:50.614Z,25.02
2017-09-21T11:37:50.909Z,25.15
2017-09-21T11:38:50.598Z,25.25
2017-09-21T11:39:50.578Z,24.87
2017-09-21T11:40:50.867Z,24.52
2017-09-21T11:41:50.616Z,24.49
2017-09-21T11:42:50.588Z,23.57
2017-09-21T11:43:50.849Z,23.33
2017-09-21T11:44:50.865Z,23.27
2017-09-21T11:45:50.978Z,23.03
2017-09-21T11:46:50.833Z,22.99
2017-09-21T11:47:50.828Z,23.45
2017-09-21T11:48:50.531Z,23.97
2017-09-21T11:49:50.818Z,24.47
2017-09-21T11:50:50.800Z,25
2017-09-21T11:51:50.531Z,25
2017-09-21T11:52:50.768Z,25
2017-09-21T11:53:50.800Z,24.62
2017-09-21T11:54:50.449Z,24.09
2017-09-21T11:55:50.791Z,24.29
2017-09-21T11:56:50.731Z,24.75
2017-09-21T11:57:50.091Z,24.95
2017-09-21T11:58:50.392Z,25.3
2017-09-21T11:59:50.381Z,25.44
2017-09-21T12:00:50.680Z,25.63
2017-09-21T12:01:50.677Z,25.42
2017-09-21T12:02:50.352Z,25.64
2017-09-21T12:03:50.719Z,25.7
2017-09-21T12:04:50.334Z,25.29
2017-09-21T12:05:50.329Z,24.57
2017-09-21T12:06:50.629Z,24.92
2017-09-21T12:07:50.314Z,25.15
2017-09-21T12:08:50.313Z,24.65
2017-09-21T12:09:49.989Z,24.85
2017-09-21T12:10:50.599Z,25
2017-09-21T12:11:50.282Z,24.87
2017-09-21T12:12:50.589Z,24.49
2017-09-21T12:13:50.567Z,24.44
2017-09-21T12:14:50.249Z,24.57
2017-09-21T12:15:50.550Z,24.43
2017-09-21T12:16:50.554Z,24.25
2017-09-21T12:17:50.549Z,23.82
2017-09-21T12:18:50.206Z,23.54
2017-09-21T12:19:50.503Z,23.22
2017-09-21T12:20:50.489Z,23.12
2017-09-21T12:21:50.484Z,23.67
2017-09-21T12:22:50.474Z,24.09
2017-09-21T12:23:50.474Z,23.95
2017-09-21T12:24:50.470Z,23.89
2017-09-21T12:25:50.454Z,24.21
2017-09-21T12:26:50.433Z,24.33
2017-09-21T12:27:50.420Z,23.95
2017-09-21T12:28:50.417Z,24.4
2017-09-21T12:29:50.078Z,24.77
2017-09-21T12:30:50.076Z,24.27
2017-09-21T12:31:50.381Z,24.25
2017-09-21T12:32:50.369Z,24.47
2017-09-21T12:33:50.361Z,24.74
2017-09-21T12:34:50.400Z,24.8
2017-09-21T12:35:50.333Z,24.75
2017-09-21T12:36:50.362Z,24.82
2017-09-21T12:37:50.312Z,25.03
2017-09-21T12:38:50.313Z,25.27
2017-09-21T12:39:50.324Z,25.56
2017-09-21T12:40:49.978Z,25.7
2017-09-21T12:41:50.279Z,25.79
2017-09-21T12:42:49.959Z,25.7
2017-09-21T12:43:50.340Z,25.03
2017-09-21T12:44:50.263Z,24.89
2017-09-21T12:45:50.251Z,24.58
2017-09-21T12:46:50.242Z,24.81
2017-09-21T12:47:49.899Z,23.95
2017-09-21T12:48:50.218Z,23.85
2017-09-21T12:49:50.234Z,24.36
2017-09-21T12:50:49.869Z,24.66
2017-09-21T12:51:49.859Z,25.17
2017-09-21T12:52:49.855Z,25.27
2017-09-21T12:53:50.200Z,24.99
2017-09-21T12:54:50.149Z,25.27
2017-09-21T12:55:49.820Z,25.14